Nearby METAR Reports

 

EDNY - Friedrichshafen, Germany
Distance from station: ONO 32km
aktuell: 23.04.2019 22:20
Few Clouds
Few Clouds
 Wind von SO
Wind: SO 9 km/h
Temperatur: 18°C
Taupunkt: 5°C
Luftfeuchte: 43%
Luftdruck: 999 hPa
Clouds: Few Clouds
Visibility: 10 km
Cloud details: Few Clouds 3658 m
2019/04/23 20:20 EDNY 232020Z AUTO 13005KT 9999 // FEW120/// 18/05 Q0999
LSZR - Rheineck/Altenrh, Switzerland
Distance from station: OSO 37km
aktuell: 23.04.2019 22:20
klar
klar
 Wind von S
Wind: S 9 km/h
Temperatur: 19°C
Taupunkt: 3°C
Luftfeuchte: 35%
Luftdruck: 1000 hPa
Zusammenfassung: klar
Visibility: greater than 10 km
2019/04/23 20:20 LSZR 232020Z AUTO 18005KT 150V260 CAVOK 19/03 Q1000
LSMD - Dubendorf, Switzerland
Distance from station: SW 40km
aktuell: 23.04.2019 22:20
klar
klar
 Wind von varies
Wind: varies 4 km/h
Temperatur: 16°C
Taupunkt: 6°C
Luftfeuchte: 52%
Luftdruck: 999 hPa
Clouds: klar
Visibility: 10 km
2019/04/23 20:20 LSMD 232020Z AUTO VRB02KT 9999NDV NCD 16/06 Q0999 RMK
 
LSZH - Zurich-Kloten (a, Switzerland
Distance from station: WSW 44km
aktuell: 23.04.2019 22:20
klar
klar
 Wind von SO
Wind: SO 6 km/h
Temperatur: 15°C
Taupunkt: 6°C
Luftfeuchte: 55%
Luftdruck: 999 hPa
Zusammenfassung: klar
Visibility: greater than 10 km
2019/04/23 20:20 LSZH 232020Z 14003KT 110V200 CAVOK 15/06 Q0999 NOSIG
LOIH - Hohenems-Dornbir, Austria
Distance from station: OSO 51km
aktuell: 31.10.2016 17:00
NOT Current
geschlossene Wolkendecke
geschlossene Wolkendecke
 Wind von calm
Wind: Windstill
Temperatur: 10°C
Taupunkt: 9°C
Luftfeuchte: 94%
Luftdruck: 1026 hPa
Clouds: geschlossene Wolkendecke
Cloud details: geschlossene Wolkendecke 305 m
2016/10/31 16:00 LOIH 311600Z 00000KT 10KM OVC010ST 10/09 Q1026 RMK OVC
LSME - Emmen, Switzerland
Distance from station: SW 82km
aktuell: 23.04.2019 22:20
klar
klar
 Wind von OSO
Wind: OSO 15 km/h
Temperatur: 18°C
Taupunkt: 3°C
Luftfeuchte: 37%
Luftdruck: 998 hPa
Clouds: klar
Visibility: 10 km
2019/04/23 20:20 LSME 232020Z AUTO 12008KT 070V190 9999NDV NCD 18/03 Q0998 RMK
 
LSZC - Buochs, Switzerland
Distance from station: SW 89km
aktuell: 23.04.2019 22:20
teilweise bewölkt
teilweise bewölkt
 Wind von varies
Wind: varies 6 km/h
Temperatur: 14°C
Taupunkt: 4°C
Luftfeuchte: 51%
Luftdruck: 999 hPa
Clouds: teilweise bewölkt
Visibility: 10 km
2019/04/23 20:20 LSZC 232020Z AUTO VRB03KT 9999 NSC 14/04 Q0999
ETHL - Laupheim (ger-Ar, Germany
Distance from station: NO 92km
aktuell: 23.04.2019 22:20
teilweise bewölkt
teilweise bewölkt
 Wind von ONO
Wind: ONO 7 km/h
Temperatur: 15°C
Taupunkt: 4°C
Luftfeuchte: 48%
Luftdruck: 1000 hPa
Clouds: teilweise bewölkt
Visibility: 10 km
Cloud details: Few Clouds 3962 m
teilweise bewölkt 7620 m
2019/04/23 20:20 ETHL 232020Z 06004KT 9999 FEW130 SCT250 15/04 Q1000 BLU+
EDJA - Memmingen Allgau, Germany
Distance from station: ONO 95km
aktuell: 23.04.2019 21:50
klar
klar
 Wind von OSO
Wind: OSO 15 km/h
Temperatur: 15°C
Taupunkt: 5°C
Luftfeuchte: 51%
Luftdruck: 1000 hPa
Zusammenfassung: klar
Visibility: greater than 10 km
2019/04/23 19:50 EDJA 231950Z 12008KT CAVOK 15/05 Q1000
 
LSMA - Alpnach, Switzerland
Distance from station: SW 95km
aktuell: 23.04.2019 22:20
Few Clouds
Few Clouds
 Wind von SSO
Wind: SSO 6 km/h
Temperatur: 13°C
Taupunkt: 5°C
Luftfeuchte: 59%
Luftdruck: 999 hPa
Clouds: Few Clouds
Visibility: 10 km
Cloud details: Few Clouds 5182 m
2019/04/23 20:20 LSMA 232020Z AUTO 15003KT 110V260 9999NDV FEW170 13/05 Q0999 RMK